Laois — FN4213 — position and weather

sailwx.info

Track history (hours):
 
Tides and Currents Weather Stations Pressure Air Temp Water Temp Dewpoint Dewpoint Depression Visibility Wind Speed Wind Dir Waves Ship Positions

Laois

Last reported at 2018-May-26 08:11 UTC. Time now 2018-May-27 11:47 UTC.
Position N 51°24' W 008°07'.

Length 13 m.

Type: Sailing vessel. MMSI: 227519360.

Date/timePositionNaut miles runAvg speedWind from/ knotsBaromVisibWave heightAir tempDewpointWater temp
2018-May-26 08:11N 51°24' W 008°07'1 7.0
2018-May-26 07:58N 51°25' W 008°08'4 7.0
2018-May-26 07:22N 51°28' W 008°13'3 6.6
2018-May-26 06:54N 51°30' W 008°17'3 6.8
2018-May-26 06:23N 51°33' W 008°20'6 7.0
2018-May-26 05:29N 51°38' W 008°27'3 7.1
2018-May-26 05:00N 51°41' W 008°30'2 0.2
2018-May-25 19:58N 51°42' W 008°31'0 0.0
2018-May-25 19:28N 51°42' W 008°31'0 0.0
2018-May-25 18:58N 51°42' W 008°31'0 0.0
2018-May-25 18:28N 51°42' W 008°31'0 0.0
2018-May-25 08:17N 51°42' W 008°31'0 0.0
2018-May-25 07:59N 51°42' W 008°31'0 0.0
2018-May-25 07:29N 51°42' W 008°31'0 0.0
2018-May-25 06:59N 51°42' W 008°31'0 0.0
2018-May-25 06:29N 51°42' W 008°31'0 0.0
2018-May-24 17:12N 51°42' W 008°31'0 0.0
2018-May-24 17:00N 51°42' W 008°31'0 0.7
2018-May-24 16:31N 51°42' W 008°31'0 0.8
2018-May-24 16:00N 51°42' W 008°31'2 4.8
2018-May-24 15:28N 51°40' W 008°30'7 5.2
2018-May-24 14:12N 51°35' W 008°37'33 6.4
2018-May-24 09:00N 51°29' W 009°30'3 5.1
2018-May-24 08:30N 51°31' W 009°32'3 6.0
2018-May-24 08:00N 51°29' W 009°37'3 6.1
2018-May-24 07:30N 51°29' W 009°41'1 2.5
2018-May-24 06:56N 51°28' W 009°44'0 0.0
2018-May-24 06:27N 51°28' W 009°44'0 0.0
2018-May-24 05:59N 51°28' W 009°43'0 0.0
2018-May-24 05:30N 51°28' W 009°43'1 0.1
2018-May-23 16:59N 51°28' W 009°41'0 0.2
2018-May-23 16:30N 51°29' W 009°42'2 3.8
2018-May-23 16:00N 51°27' W 009°44'2 4.9
2018-May-23 15:30N 51°26' W 009°47'1 2.5
2018-May-23 14:57N 51°26' W 009°49'2 3.9
2018-May-23 14:20N 51°27' W 009°52'3 8.0
2018-May-23 13:56N 51°29' W 009°56'0 0.5
2018-May-23 13:30N 51°29' W 009°57'3 6.6
2018-May-23 12:59N 51°32' W 009°54'1 1.4
2018-May-23 12:26N 51°33' W 009°54'1 2.0
2018-May-23 12:00N 51°34' W 009°55'2 3.8
2018-May-23 11:25N 51°36' W 009°55'3 3.8
2018-May-23 10:38N 51°39' W 009°54'2 8.5
2018-May-23 10:24N 51°39' W 009°51'5 9.1
2018-May-23 09:54N 51°39' W 009°44'2 4.2
2018-May-23 09:24N 51°39' W 009°41'2 4.2
2018-May-23 09:00N 51°40' W 009°38'7 4.9
2018-May-23 07:38N 51°42' W 009°28'1 4.9
2018-May-23 07:28N 51°42' W 009°29'2 4.3
2018-May-23 06:59N 51°44' W 009°32'1 2.6
2018-May-23 06:27N 51°45' W 009°32'0 0.0
2018-May-23 05:47N 51°45' W 009°32'0 0.0
2018-May-22 18:12N 51°45' W 009°32'0 0.0
2018-May-22 18:00N 51°45' W 009°32'1 1.6
2018-May-22 17:30N 51°44' W 009°32'5 6.3
2018-May-22 16:47N 51°40' W 009°36'1 2.2
2018-May-22 16:21N 51°40' W 009°37'512.9
2018-May-22 15:57N 51°38' W 009°45'1 1.5
2018-May-22 15:30N 51°38' W 009°46'2 4.9
2018-May-22 15:00N 51°36' W 009°47'3 5.2
2018-May-22 14:29N 51°34' W 009°50'4 6.2
2018-May-22 13:47N 51°29' W 009°52'0 0.4
2018-May-22 13:28N 51°29' W 009°52'3 5.2
2018-May-22 12:55N 51°27' W 009°49'1 2.8
2018-May-22 12:29N 51°26' W 009°48'2 4.0
2018-May-22 12:00N 51°25' W 009°45'2 4.7
2018-May-22 11:29N 51°24' W 009°42'3 5.3
2018-May-22 10:59N 51°23' W 009°37'2 3.6
2018-May-22 10:30N 51°23' W 009°35'3 5.3
2018-May-22 10:00N 51°24' W 009°31'3 5.2
2018-May-22 09:28N 51°26' W 009°27'2 4.7
2018-May-22 09:00N 51°27' W 009°24'1 1.8
2018-May-22 08:30N 51°28' W 009°24'1 2.3
2018-May-22 08:00N 51°29' W 009°23'0 0.0
2018-May-22 07:30N 51°29' W 009°23'0 0.0
2018-May-22 07:00N 51°29' W 009°23'0 0.0
2018-May-22 06:30N 51°29' W 009°23'0 0.0
2018-May-21 16:53N 51°29' W 009°23'0 0.3
2018-May-21 16:26N 51°29' W 009°23'1 2.6
2018-May-21 15:59N 51°28' W 009°23'3 6.5
2018-May-21 15:29N 51°28' W 009°18'3 6.3
2018-May-21 14:58N 51°29' W 009°13'3 6.5
2018-May-21 14:30N 51°29' W 009°08'3 6.5
2018-May-21 13:59N 51°30' W 009°03'2 4.9
2018-May-21 13:28N 51°31' W 008°59'1 2.8
2018-May-21 12:58N 51°31' W 008°56'11 5.2
2018-May-21 10:51N 51°34' W 008°39'5 6.5
2018-May-21 10:05N 51°36' W 008°32'1 6.7
2018-May-21 09:59N 51°37' W 008°31'3 6.1
2018-May-21 09:30N 51°39' W 008°30'3 5.3
2018-May-21 09:00N 51°42' W 008°31'0 0.4
2018-May-21 08:30N 51°42' W 008°31'0 0.6
2018-May-21 07:58N 51°42' W 008°31'0 0.0
2018-May-21 07:31N 51°42' W 008°31'0 0.0
2018-May-21 07:01N 51°42' W 008°31'0 0.0
2018-May-20 21:10N 51°42' W 008°31'0 0.0
2018-May-20 20:58N 51°42' W 008°31'0 0.0
2018-May-20 20:28N 51°42' W 008°31'0 0.0
2018-May-20 19:59N 51°42' W 008°31'0 0.0
2018-May-19 22:26N 51°42' W 008°31'0 0.0
2018-May-19 21:59N 51°42' W 008°31'0 0.0
2018-May-19 21:27N 51°42' W 008°31'0 0.0
2018-May-19 21:00N 51°42' W 008°31'2 4.6
2018-May-19 20:30N 51°40' W 008°30'3 5.1
2018-May-19 20:00N 51°38' W 008°27'3 5.7
2018-May-19 19:29N 51°36' W 008°24'3 6.5
2018-May-19 19:00N 51°34' W 008°20'3 6.7
2018-May-19 18:30N 51°32' W 008°16'3 6.6
2018-May-19 18:00N 51°29' W 008°13'3 6.7
2018-May-19 17:30N 51°26' W 008°09'3 6.9
2018-May-19 17:00N 51°24' W 008°05'8 6.9
2018-May-19 15:52N 51°19' W 007°56'23 7.2
2018-May-19 12:42N 51°02' W 007°31'149 6.3
2018-May-18 12:55N 48°60' W 005°19'4 7.7
2018-May-18 12:27N 48°58' W 005°15'4 7.8
2018-May-18 11:57N 48°55' W 005°10'10 7.7
2018-May-18 10:38N 48°49' W 004°58'4 7.2
2018-May-18 10:07N 48°47' W 004°54'2 7.3
2018-May-18 09:54N 48°46' W 004°52'9 7.2
2018-May-18 08:38N 48°40' W 004°41'3 7.0
2018-May-18 08:10N 48°37' W 004°38'2 7.6
2018-May-18 07:54N 48°37' W 004°35'  
Track history (hours):
 
Tides and Currents Weather Stations Pressure Air Temp Water Temp Dewpoint Dewpoint Depression Visibility Wind Speed Wind Dir Waves Ship Positions

Laois

Last reported at 2018-May-26 08:11 UTC. Time now 2018-May-27 11:47 UTC.
Position N 51°24' W 008°07'.

Length 13 m.

Type: Sailing vessel. MMSI: 227519360.

Date/timePositionNaut miles runAvg speedWind from/ knotsBaromVisibWave heightAir tempDewpointWater temp
2018-May-26 08:11N 51°24' W 008°07'1 7.0
2018-May-26 07:58N 51°25' W 008°08'4 7.0
2018-May-26 07:22N 51°28' W 008°13'3 6.6
2018-May-26 06:54N 51°30' W 008°17'3 6.8
2018-May-26 06:23N 51°33' W 008°20'6 7.0
2018-May-26 05:29N 51°38' W 008°27'3 7.1
2018-May-26 05:00N 51°41' W 008°30'2 0.2
2018-May-25 19:58N 51°42' W 008°31'0 0.0
2018-May-25 19:28N 51°42' W 008°31'0 0.0
2018-May-25 18:58N 51°42' W 008°31'0 0.0
2018-May-25 18:28N 51°42' W 008°31'0 0.0
2018-May-25 08:17N 51°42' W 008°31'0 0.0
2018-May-25 07:59N 51°42' W 008°31'0 0.0
2018-May-25 07:29N 51°42' W 008°31'0 0.0
2018-May-25 06:59N 51°42' W 008°31'0 0.0
2018-May-25 06:29N 51°42' W 008°31'0 0.0
2018-May-24 17:12N 51°42' W 008°31'0 0.0
2018-May-24 17:00N 51°42' W 008°31'0 0.7
2018-May-24 16:31N 51°42' W 008°31'0 0.8
2018-May-24 16:00N 51°42' W 008°31'2 4.8
2018-May-24 15:28N 51°40' W 008°30'7 5.2
2018-May-24 14:12N 51°35' W 008°37'33 6.4
2018-May-24 09:00N 51°29' W 009°30'3 5.1
2018-May-24 08:30N 51°31' W 009°32'3 6.0
2018-May-24 08:00N 51°29' W 009°37'3 6.1
2018-May-24 07:30N 51°29' W 009°41'1 2.5
2018-May-24 06:56N 51°28' W 009°44'0 0.0
2018-May-24 06:27N 51°28' W 009°44'0 0.0
2018-May-24 05:59N 51°28' W 009°43'0 0.0
2018-May-24 05:30N 51°28' W 009°43'1 0.1
2018-May-23 16:59N 51°28' W 009°41'0 0.2
2018-May-23 16:30N 51°29' W 009°42'2 3.8
2018-May-23 16:00N 51°27' W 009°44'2 4.9
2018-May-23 15:30N 51°26' W 009°47'1 2.5
2018-May-23 14:57N 51°26' W 009°49'2 3.9
2018-May-23 14:20N 51°27' W 009°52'3 8.0
2018-May-23 13:56N 51°29' W 009°56'0 0.5
2018-May-23 13:30N 51°29' W 009°57'3 6.6
2018-May-23 12:59N 51°32' W 009°54'1 1.4
2018-May-23 12:26N 51°33' W 009°54'1 2.0
2018-May-23 12:00N 51°34' W 009°55'2 3.8
2018-May-23 11:25N 51°36' W 009°55'3 3.8
2018-May-23 10:38N 51°39' W 009°54'2 8.5
2018-May-23 10:24N 51°39' W 009°51'5 9.1
2018-May-23 09:54N 51°39' W 009°44'2 4.2
2018-May-23 09:24N 51°39' W 009°41'2 4.2
2018-May-23 09:00N 51°40' W 009°38'7 4.9
2018-May-23 07:38N 51°42' W 009°28'1 4.9
2018-May-23 07:28N 51°42' W 009°29'2 4.3
2018-May-23 06:59N 51°44' W 009°32'1 2.6
2018-May-23 06:27N 51°45' W 009°32'0 0.0
2018-May-23 05:47N 51°45' W 009°32'0 0.0
2018-May-22 18:12N 51°45' W 009°32'0 0.0
2018-May-22 18:00N 51°45' W 009°32'1 1.6
2018-May-22 17:30N 51°44' W 009°32'5 6.3
2018-May-22 16:47N 51°40' W 009°36'1 2.2
2018-May-22 16:21N 51°40' W 009°37'512.9
2018-May-22 15:57N 51°38' W 009°45'1 1.5
2018-May-22 15:30N 51°38' W 009°46'2 4.9
2018-May-22 15:00N 51°36' W 009°47'3 5.2
2018-May-22 14:29N 51°34' W 009°50'4 6.2
2018-May-22 13:47N 51°29' W 009°52'0 0.4
2018-May-22 13:28N 51°29' W 009°52'3 5.2
2018-May-22 12:55N 51°27' W 009°49'1 2.8
2018-May-22 12:29N 51°26' W 009°48'2 4.0
2018-May-22 12:00N 51°25' W 009°45'2 4.7
2018-May-22 11:29N 51°24' W 009°42'3 5.3
2018-May-22 10:59N 51°23' W 009°37'2 3.6
2018-May-22 10:30N 51°23' W 009°35'3 5.3
2018-May-22 10:00N 51°24' W 009°31'3 5.2
2018-May-22 09:28N 51°26' W 009°27'2 4.7
2018-May-22 09:00N 51°27' W 009°24'1 1.8
2018-May-22 08:30N 51°28' W 009°24'1 2.3
2018-May-22 08:00N 51°29' W 009°23'0 0.0
2018-May-22 07:30N 51°29' W 009°23'0 0.0
2018-May-22 07:00N 51°29' W 009°23'0 0.0
2018-May-22 06:30N 51°29' W 009°23'0 0.0
2018-May-21 16:53N 51°29' W 009°23'0 0.3
2018-May-21 16:26N 51°29' W 009°23'1 2.6
2018-May-21 15:59N 51°28' W 009°23'3 6.5
2018-May-21 15:29N 51°28' W 009°18'3 6.3
2018-May-21 14:58N 51°29' W 009°13'3 6.5
2018-May-21 14:30N 51°29' W 009°08'3 6.5
2018-May-21 13:59N 51°30' W 009°03'2 4.9
2018-May-21 13:28N 51°31' W 008°59'1 2.8
2018-May-21 12:58N 51°31' W 008°56'11 5.2
2018-May-21 10:51N 51°34' W 008°39'5 6.5
2018-May-21 10:05N 51°36' W 008°32'1 6.7
2018-May-21 09:59N 51°37' W 008°31'3 6.1
2018-May-21 09:30N 51°39' W 008°30'3 5.3
2018-May-21 09:00N 51°42' W 008°31'0 0.4
2018-May-21 08:30N 51°42' W 008°31'0 0.6
2018-May-21 07:58N 51°42' W 008°31'0 0.0
2018-May-21 07:31N 51°42' W 008°31'0 0.0
2018-May-21 07:01N 51°42' W 008°31'0 0.0
2018-May-20 21:10N 51°42' W 008°31'0 0.0
2018-May-20 20:58N 51°42' W 008°31'0 0.0
2018-May-20 20:28N 51°42' W 008°31'0 0.0
2018-May-20 19:59N 51°42' W 008°31'0 0.0
2018-May-19 22:26N 51°42' W 008°31'0 0.0
2018-May-19 21:59N 51°42' W 008°31'0 0.0
2018-May-19 21:27N 51°42' W 008°31'0 0.0
2018-May-19 21:00N 51°42' W 008°31'2 4.6
2018-May-19 20:30N 51°40' W 008°30'3 5.1
2018-May-19 20:00N 51°38' W 008°27'3 5.7
2018-May-19 19:29N 51°36' W 008°24'3 6.5
2018-May-19 19:00N 51°34' W 008°20'3 6.7
2018-May-19 18:30N 51°32' W 008°16'3 6.6
2018-May-19 18:00N 51°29' W 008°13'3 6.7
2018-May-19 17:30N 51°26' W 008°09'3 6.9
2018-May-19 17:00N 51°24' W 008°05'8 6.9
2018-May-19 15:52N 51°19' W 007°56'23 7.2
2018-May-19 12:42N 51°02' W 007°31'149 6.3
2018-May-18 12:55N 48°60' W 005°19'4 7.7
2018-May-18 12:27N 48°58' W 005°15'4 7.8
2018-May-18 11:57N 48°55' W 005°10'10 7.7
2018-May-18 10:38N 48°49' W 004°58'4 7.2
2018-May-18 10:07N 48°47' W 004°54'2 7.3
2018-May-18 09:54N 48°46' W 004°52'9 7.2
2018-May-18 08:38N 48°40' W 004°41'3 7.0
2018-May-18 08:10N 48°37' W 004°38'2 7.6
2018-May-18 07:54N 48°37' W 004°35'  

Dump ship's entire track history